Wichita Mid Continent Airport
KICT : now visible

Airfield :











YOU CAN JOIN US ON...

 
LOGIN :

Register | Disclaimer

   EN    FR    IT 

 









Legend :    VFR   Marginal VFR   IFR   Intensive IFR   Very Intensive IFR
Visi :
Ceiling :
>= 8 km
>= 3000ft
5 to 8 km
1000 to 3000 ft
1500m to 5 km
500 to 1000 ft
800 to 1500m
200 to 500 ft
< 800m
< 200 ft
Symbols :   Thunderstorms  Fog  Heavy snow  Heavy precipitations  Wind > 20 kt






- Airport Elevation : 1333 ft
- IATA code : ICT


KICT - Wichita Mid Continent

CURRENT METAR :
  • 201112Z 36013KT 2SM -SN BR BKN009 OVC024 00/M02 A3018 RMK AO2 TWR VIS 2 1/2 P0001 T00001017

EXPIRED METARs :
  • 201053Z 36016G27KT 2SM -SN BR BKN009 OVC024 00/M02 A3019 RMK AO2 PK WND 35028/0956 TWR VIS 2 1/2 SLP226 P0002 T00001017
  • 201049Z 36018G27KT 2 1/2SM -SN BR BKN007 BKN012 OVC022 00/M02 A3018 RMK AO2 PK WND 35028/0956 P0002
  • 201011Z 36015G24KT 1 1/2SM -SN BR BKN008 OVC013 00/M01 A3017 RMK AO2 PK WND 35028/0956 SFC VIS 1 3/4 P0001 T00001011
  • 200953Z 35013KT 1 1/4SM -SN BR SCT008 BKN013 OVC055 00/M01 A3017 RMK AO2 PK WND 02026/0907 TWR VIS 1 1/2 SNB07 SLP222 P0002 T00001011
  • 200944Z 35012KT 2SM -SN BR SCT009 BKN013 OVC055 00/M01 A3018 RMK AO2 PK WND 02026/0907 SNB07 P0000 T00001011
  • 200909Z 36018G26KT 6SM -SN BKN020 BKN024 OVC055 01/M03 A3015 RMK AO2 PK WND 02026/0907 SNB07 P0000 T00111028
  • 200853Z 36015G23KT 10SM SCT020 OVC050 01/M03 A3015 RMK AO2 PK WND 02026/0804 SLP211 T00111028 51004

TAF KICT
Valid from the 20 at 10:00 until the 21 at 06:00 UTC


201016Z 2010/2106 01017KT 4SM -SN BR SCT008 OVC012
TEMPO 2011/2013 1SM -SN BR OVC008
FM201400 01016G25KT 5SM BR VCSH SCT008 OVC015
FM201600 36014G25KT P6SM SCT013 BKN025
FM201800 36014G23KT P6SM SCT040
FM210100 33008KT P6SM FEW200
KZKC FIR / North America



MET'MAP, your aeronautical weather chart ! - Copyright ORBIFLY December 2007 - Disclaimer

ORBIFLY MET'MAP TEAM :

Programming & Development : Alexandra Zaïnal
Concept & original design : Baudouin d'Aumeries
Assistance for programming : Marc-Olivier Méhu
Technical & hardware support : Manuel Goepfert

Contact : metmap@orbifly.com




SOURCES & CREDITS :

   NOAA       Earth
Advisory